»·PEaware :: FDX1859 KOAK-KRNO

FDX1859 :: KOAK-KRNO

FLIGHT INFORMATION

Flight Status: Arrived
Operator:
Federal Express
More flights by this operator :: More flights under this callsign
Pilot: Anonymous 16342 (16342)
Aircraft: BOEING 757-200
(B752)
More flights by this aircraft type
Origin: KOAK Metro Oakland Intl
United States
Destination: KRNO Reno/Tahoe Intl
United States
More flights between these airports :: More routes between these airports
Route: OAK5 OAK SAC SIER3
File this flight plan on PilotEdge
Remarks:
Altitude:
(Current/Filed)
23,000ft
Speed:
(Current/Filed)
431kts
Departed: 05-Oct-20 01:12 PM
Arrived: 05-Oct-20 01:49 PM
Distance/Time
Traveled:
157nm/0:36
Distance/Time
To Go:
Arrived

Flight Plot

Page will automatically refresh every two minutes.

Flight plan parsing failed; only flown route is shown


Map Options




Map Legend


Flown Route
Filed Route
Departure Airport
Arrival Airport
Navaid (VOR, NDB)
Fix

Horizontal Profiles

Position Reports

Time Latitude Longitude Heading Altitude Ground
Speed
05-Oct-20 12:51 37.716995 -122.220318 310 16ft 0kts
05-Oct-20 12:52 37.716995 -122.220318 310 16ft 0kts
05-Oct-20 12:53 37.716995 -122.220318 310 16ft 0kts
05-Oct-20 12:54 37.716995 -122.220318 310 16ft 0kts
05-Oct-20 12:55 37.716995 -122.220318 310 16ft 0kts
05-Oct-20 12:56 37.716995 -122.220318 310 16ft 0kts
05-Oct-20 12:57 37.716785 -122.219842 283 16ft 2kts
05-Oct-20 12:58 37.716959 -122.219046 228 16ft 0kts
05-Oct-20 12:59 37.716959 -122.219046 228 16ft 0kts
05-Oct-20 13:00 37.716959 -122.219046 228 16ft 0kts
05-Oct-20 13:01 37.715850 -122.220328 174 16ft 7kts
05-Oct-20 13:02 37.713926 -122.221004 232 16ft 14kts
05-Oct-20 13:03 37.710801 -122.224359 151 16ft 10kts
05-Oct-20 13:04 37.707757 -122.219896 130 16ft 19kts
05-Oct-20 13:05 37.705232 -122.216045 128 16ft 0kts
05-Oct-20 13:06 37.702467 -122.213766 202 16ft 9kts
05-Oct-20 13:07 37.702282 -122.213890 212 16ft 0kts
05-Oct-20 13:08 37.702282 -122.213890 212 16ft 0kts
05-Oct-20 13:09 37.702281 -122.213890 212 16ft 0kts
05-Oct-20 13:10 37.701823 -122.214685 294 16ft 11kts
05-Oct-20 13:11 37.720537 -122.242733 309 825ft 177kts
05-Oct-20 13:12 37.757186 -122.299248 309 1922ft 216kts
05-Oct-20 13:13 37.797422 -122.363061 309 4716ft 246kts
05-Oct-20 13:14 37.846370 -122.429012 338 8045ft 270kts
05-Oct-20 13:15 37.910937 -122.390461 50 11072ft 294kts
05-Oct-20 13:16 37.967249 -122.303213 51 13431ft 346kts
05-Oct-20 13:17 38.031616 -122.202891 51 16176ft 376kts
05-Oct-20 13:18 38.098549 -122.098242 51 19201ft 385kts
05-Oct-20 13:19 38.166959 -121.990854 52 21709ft 398kts
05-Oct-20 13:20 38.237417 -121.879803 52 23063ft 406kts
05-Oct-20 13:21 38.308355 -121.767578 52 23076ft 406kts
05-Oct-20 13:22 38.379037 -121.655234 52 23076ft 407kts
05-Oct-20 13:23 38.450112 -121.542593 49 23073ft 409kts
05-Oct-20 13:24 38.530986 -121.440563 45 23072ft 411kts
05-Oct-20 13:25 38.612209 -121.336752 45 23072ft 412kts
05-Oct-20 13:26 38.693077 -121.232998 45 23072ft 413kts
05-Oct-20 13:27 38.774698 -121.127936 45 23072ft 414kts
05-Oct-20 13:28 38.856020 -121.022896 45 23072ft 414kts
05-Oct-20 13:29 38.937052 -120.917868 45 23073ft 415kts
05-Oct-20 13:30 39.013444 -120.818520 45 23073ft 415kts
05-Oct-20 13:31 39.094751 -120.712425 45 23072ft 415kts
05-Oct-20 13:32 39.175758 -120.606354 45 22362ft 415kts
05-Oct-20 13:33 39.255552 -120.501506 45 19540ft 399kts
05-Oct-20 13:34 39.331571 -120.401261 45 17435ft 386kts
05-Oct-20 13:35 39.405172 -120.304058 44 16092ft 356kts
05-Oct-20 13:36 39.471975 -120.223193 43 16078ft 318kts
05-Oct-20 13:37 39.535854 -120.144881 43 16062ft 303kts
05-Oct-20 13:38 39.595322 -120.071755 43 16046ft 291kts
05-Oct-20 13:39 39.652778 -120.000733 43 15195ft 289kts
05-Oct-20 13:40 39.716212 -119.943070 14 13735ft 276kts
05-Oct-20 13:41 39.781689 -119.899460 65 12197ft 273kts
05-Oct-20 13:42 39.773039 -119.807229 136 10703ft 264kts
05-Oct-20 13:43 39.709032 -119.764485 170 9220ft 258kts
05-Oct-20 13:44 39.646600 -119.765011 183 7770ft 188kts
05-Oct-20 13:45 39.600483 -119.768778 183 6130ft 156kts
05-Oct-20 13:46 39.557878 -119.769443 180 5485ft 152kts
05-Oct-20 13:47 39.515617 -119.769247 179 4565ft 149kts
05-Oct-20 13:48 39.493222 -119.769325 207 4425ft 8kts
05-Oct-20 13:49 39.492661 -119.771399 331 4425ft 6kts
05-Oct-20 13:50 39.496065 -119.771495 0 4425ft 3kts
05-Oct-20 13:51 39.498862 -119.771492 359 4425ft 12kts
05-Oct-20 13:52 39.502020 -119.771483 359 4425ft 13kts
05-Oct-20 13:53 39.505847 -119.771499 0 4425ft 12kts
05-Oct-20 13:54 39.508707 -119.771801 282 4425ft 6kts
05-Oct-20 13:55 39.509301 -119.772730 357 4425ft 4kts

Navigation Log

Ident Type
Flight plan parsing failed, navigation log unavailable